createdAt,value
2022-08-31T00:00:13.474Z,100.00
2022-08-31T00:02:58.761Z,100.00
2022-08-31T00:05:25.772Z,100.00
2022-08-31T00:07:52.661Z,100.00
2022-08-31T00:10:31.652Z,100.00
2022-08-31T00:13:01.495Z,100.00
2022-08-31T00:15:30.176Z,100.00
2022-08-31T00:17:57.469Z,100.00
2022-08-31T00:20:33.722Z,100.00
2022-08-31T00:23:10.052Z,100.00
2022-08-31T00:25:37.981Z,100.00
2022-08-31T00:28:05.434Z,100.00
2022-08-31T00:30:32.766Z,100.00
2022-08-31T00:33:00.071Z,100.00
2022-08-31T00:35:28.515Z,100.00
2022-08-31T00:37:55.201Z,100.00
2022-08-31T00:40:22.000Z,100.00
2022-08-31T00:42:48.518Z,100.00
2022-08-31T00:45:15.182Z,100.00
2022-08-31T00:47:41.723Z,100.00
2022-08-31T00:50:12.410Z,100.00
2022-08-31T00:52:41.923Z,100.00
2022-08-31T00:55:12.921Z,100.00
2022-08-31T00:57:42.556Z,100.00
2022-08-31T01:00:13.525Z,100.00
2022-08-31T01:02:40.468Z,100.00
2022-08-31T01:05:08.602Z,100.00
2022-08-31T01:07:35.409Z,100.00
2022-08-31T01:10:02.807Z,100.00
2022-08-31T01:12:29.719Z,100.00
2022-08-31T01:14:57.317Z,100.00
2022-08-31T01:17:24.030Z,100.00
2022-08-31T01:20:21.035Z,100.00
2022-08-31T01:23:11.439Z,100.00
2022-08-31T01:25:39.769Z,100.00
2022-08-31T01:28:07.921Z,100.00
2022-08-31T01:30:35.402Z,100.00
2022-08-31T01:33:02.079Z,100.00
2022-08-31T01:35:28.914Z,100.00
2022-08-31T01:37:56.476Z,100.00
2022-08-31T01:40:50.920Z,100.00
2022-08-31T01:43:17.800Z,100.00
2022-08-31T01:45:44.611Z,100.00
2022-08-31T01:48:11.470Z,100.00
2022-08-31T01:50:38.607Z,100.00
2022-08-31T01:53:05.725Z,100.00
2022-08-31T01:55:33.008Z,100.00
2022-08-31T01:58:00.783Z,100.00
2022-08-31T02:00:28.708Z,100.00
2022-08-31T02:02:57.636Z,100.00
2022-08-31T02:05:24.394Z,100.00
2022-08-31T02:07:51.144Z,100.00
2022-08-31T02:10:17.897Z,100.00
2022-08-31T02:12:44.864Z,100.00
2022-08-31T02:15:11.571Z,100.00
2022-08-31T02:17:38.760Z,100.00
2022-08-31T02:20:07.687Z,100.00
2022-08-31T02:22:34.669Z,100.00
2022-08-31T02:25:01.270Z,100.00
2022-08-31T02:27:28.130Z,100.00
2022-08-31T02:29:55.293Z,100.00
2022-08-31T02:32:21.790Z,100.00
2022-08-31T02:34:48.768Z,100.00
2022-08-31T02:37:15.592Z,100.00
2022-08-31T02:39:44.046Z,100.00
2022-08-31T02:42:11.014Z,100.00
2022-08-31T02:44:37.485Z,100.00
2022-08-31T02:47:04.327Z,100.00
2022-08-31T02:49:32.775Z,100.00
2022-08-31T02:51:59.258Z,100.00
2022-08-31T02:54:25.701Z,100.00
2022-08-31T02:56:52.185Z,100.00
2022-08-31T02:59:20.672Z,100.00
2022-08-31T03:01:48.038Z,100.00
2022-08-31T03:04:14.565Z,100.00
2022-08-31T03:06:41.462Z,100.00
2022-08-31T03:09:07.984Z,100.00
2022-08-31T03:11:34.406Z,100.00
2022-08-31T03:14:00.871Z,100.00
2022-08-31T03:16:27.562Z,100.00
2022-08-31T03:18:54.052Z,100.00
2022-08-31T03:21:20.563Z,100.00
2022-08-31T03:23:47.173Z,100.00
2022-08-31T03:26:13.694Z,100.00
2022-08-31T03:28:40.240Z,100.00
2022-08-31T03:31:08.854Z,100.00
2022-08-31T03:33:35.822Z,100.00
2022-08-31T03:36:03.844Z,100.00
2022-08-31T03:38:30.497Z,100.00
2022-08-31T03:40:57.223Z,100.00
2022-08-31T03:43:23.689Z,100.00
2022-08-31T03:45:50.215Z,100.00
2022-08-31T03:48:17.034Z,100.00
2022-08-31T03:50:43.698Z,100.00
2022-08-31T03:53:10.966Z,100.00
2022-08-31T03:55:40.241Z,100.00
2022-08-31T03:58:06.895Z,100.00
2022-08-31T04:00:34.238Z,100.00
2022-08-31T04:03:01.589Z,100.00
2022-08-31T04:05:29.354Z,100.00
2022-08-31T04:07:56.658Z,100.00
2022-08-31T04:10:23.435Z,100.00
2022-08-31T04:12:50.742Z,100.00
2022-08-31T04:15:18.481Z,100.00
2022-08-31T04:17:46.266Z,100.00
2022-08-31T04:20:13.285Z,100.00
2022-08-31T04:22:39.838Z,100.00
2022-08-31T04:25:06.899Z,100.00
2022-08-31T04:27:33.453Z,100.00
2022-08-31T04:30:00.026Z,100.00
2022-08-31T04:32:27.494Z,100.00
2022-08-31T04:34:56.653Z,100.00
2022-08-31T04:37:23.294Z,100.00
2022-08-31T04:39:51.241Z,100.00
2022-08-31T04:42:18.986Z,100.00
2022-08-31T04:44:45.410Z,100.00
2022-08-31T04:47:11.925Z,100.00
2022-08-31T04:49:38.713Z,100.00
2022-08-31T04:52:05.168Z,100.00
2022-08-31T04:54:31.851Z,100.00
2022-08-31T04:56:59.230Z,100.00
2022-08-31T04:59:27.387Z,100.00
2022-08-31T05:01:55.562Z,100.00
2022-08-31T05:04:25.973Z,100.00
2022-08-31T05:06:52.556Z,100.00
2022-08-31T05:09:22.524Z,100.00
2022-08-31T05:11:50.669Z,100.00
2022-08-31T05:14:17.833Z,100.00
2022-08-31T05:16:44.630Z,100.00
2022-08-31T05:19:11.482Z,100.00
2022-08-31T05:21:40.152Z,100.00
2022-08-31T05:24:12.710Z,100.00
2022-08-31T05:26:44.322Z,100.00
2022-08-31T05:29:14.270Z,100.00
2022-08-31T05:31:42.383Z,100.00
2022-08-31T05:34:09.491Z,100.00
2022-08-31T05:36:35.936Z,100.00
2022-08-31T05:39:02.509Z,100.00
2022-08-31T05:41:31.001Z,100.00
2022-08-31T05:43:57.826Z,100.00
2022-08-31T05:46:24.335Z,100.00
2022-08-31T05:48:51.074Z,100.00
2022-08-31T05:51:19.129Z,100.00
2022-08-31T05:53:46.673Z,100.00
2022-08-31T05:56:16.043Z,100.00
2022-08-31T05:58:46.882Z,100.00
2022-08-31T06:01:32.289Z,100.00
2022-08-31T06:04:00.090Z,100.00
2022-08-31T06:06:27.215Z,100.00
2022-08-31T06:08:54.281Z,100.00
2022-08-31T06:11:23.268Z,100.00
2022-08-31T06:13:51.262Z,100.00
2022-08-31T06:16:18.578Z,100.00
2022-08-31T06:18:50.622Z,100.00
2022-08-31T06:21:21.075Z,100.00
2022-08-31T06:23:49.849Z,100.00
2022-08-31T06:26:18.521Z,100.00
2022-08-31T06:28:48.398Z,100.00
2022-08-31T06:31:18.600Z,100.00
2022-08-31T06:33:47.396Z,100.00
2022-08-31T06:36:16.824Z,100.00
2022-08-31T06:38:44.134Z,100.00
2022-08-31T06:41:25.060Z,100.00
2022-08-31T06:43:51.518Z,100.00
2022-08-31T06:46:19.310Z,100.00
2022-08-31T06:48:46.271Z,100.00
2022-08-31T06:51:13.170Z,100.00
2022-08-31T06:53:42.379Z,100.00
2022-08-31T06:56:20.512Z,100.00
2022-08-31T06:58:53.600Z,100.00
2022-08-31T07:01:34.771Z,100.00
2022-08-31T07:04:04.900Z,100.00
2022-08-31T07:06:35.517Z,100.00
2022-08-31T07:09:04.301Z,100.00
2022-08-31T07:11:35.376Z,100.00
2022-08-31T07:14:03.267Z,100.00
2022-08-31T07:16:29.934Z,100.00
2022-08-31T07:19:01.470Z,100.00
2022-08-31T07:21:31.631Z,100.00
2022-08-31T07:24:00.949Z,100.00
2022-08-31T07:26:36.443Z,100.00
2022-08-31T07:29:06.801Z,100.00
2022-08-31T07:31:41.225Z,100.00
2022-08-31T07:34:08.217Z,100.00
2022-08-31T07:36:54.798Z,98.69
2022-08-31T07:39:39.877Z,94.76
2022-08-31T07:42:09.879Z,90.46
2022-08-31T07:44:36.991Z,90.04
2022-08-31T07:47:04.173Z,90.69
2022-08-31T07:49:30.756Z,84.44
2022-08-31T07:51:58.501Z,80.80
2022-08-31T07:54:29.925Z,82.60
2022-08-31T07:57:04.322Z,81.84
2022-08-31T07:59:33.245Z,84.68
2022-08-31T08:02:03.340Z,85.31
2022-08-31T08:04:30.396Z,83.05
2022-08-31T08:06:58.327Z,80.08
2022-08-31T08:09:28.619Z,81.00
2022-08-31T08:12:01.304Z,81.83
2022-08-31T08:14:30.350Z,85.10
2022-08-31T08:16:56.904Z,84.21
2022-08-31T08:19:23.912Z,85.78
2022-08-31T08:21:51.092Z,85.47
2022-08-31T08:24:19.305Z,86.57
2022-08-31T08:26:50.934Z,85.30
2022-08-31T08:29:20.301Z,86.34
2022-08-31T08:31:52.102Z,82.23
2022-08-31T08:34:19.992Z,82.51
2022-08-31T08:36:47.321Z,81.38
2022-08-31T08:39:13.947Z,79.18
2022-08-31T08:41:42.091Z,75.14
2022-08-31T08:44:10.938Z,75.50
2022-08-31T08:46:48.354Z,73.20
2022-08-31T08:49:19.932Z,83.46
2022-08-31T08:51:49.668Z,83.73
2022-08-31T08:54:24.604Z,77.08
2022-08-31T08:56:51.346Z,78.99
2022-08-31T08:59:19.866Z,75.06
2022-08-31T09:01:49.250Z,74.09
2022-08-31T09:04:41.835Z,72.31
2022-08-31T09:07:32.596Z,73.39
2022-08-31T09:10:26.284Z,72.92
2022-08-31T09:13:09.775Z,70.05
2022-08-31T09:16:09.198Z,69.07
2022-08-31T09:18:55.979Z,73.62
2022-08-31T09:21:30.991Z,68.11
2022-08-31T09:24:13.007Z,67.07
2022-08-31T09:27:19.396Z,69.94
2022-08-31T09:29:48.195Z,67.33
2022-08-31T09:32:23.248Z,69.51
2022-08-31T09:35:01.745Z,67.37
2022-08-31T09:37:33.203Z,71.35
2022-08-31T09:40:36.273Z,69.37
2022-08-31T09:43:05.771Z,67.85
2022-08-31T09:45:41.937Z,71.34
2022-08-31T09:48:09.083Z,70.23
2022-08-31T09:50:35.711Z,69.26
2022-08-31T09:53:40.654Z,69.65
2022-08-31T09:56:19.796Z,63.61
2022-08-31T09:58:55.381Z,64.58
2022-08-31T10:01:35.506Z,65.58
2022-08-31T10:04:16.963Z,62.01
2022-08-31T10:07:01.803Z,62.13
2022-08-31T10:09:36.034Z,59.14
2022-08-31T10:12:10.344Z,59.53
2022-08-31T10:14:44.242Z,58.43
2022-08-31T10:17:15.384Z,55.41
2022-08-31T10:19:53.406Z,55.57
2022-08-31T10:22:28.238Z,56.15
2022-08-31T10:25:04.792Z,58.22
2022-08-31T10:27:40.297Z,61.46
2022-08-31T10:30:30.299Z,60.12
2022-08-31T10:33:14.901Z,64.55
2022-08-31T10:35:57.604Z,66.23
2022-08-31T10:38:37.121Z,65.93
2022-08-31T10:41:20.333Z,67.17
2022-08-31T10:44:06.397Z,63.64
2022-08-31T10:46:34.526Z,65.25
2022-08-31T10:49:04.868Z,66.71
2022-08-31T10:51:46.597Z,67.35
2022-08-31T10:54:33.830Z,63.46
2022-08-31T10:57:39.175Z,64.28
2022-08-31T11:00:31.924Z,64.56
2022-08-31T11:03:07.363Z,64.60
2022-08-31T11:05:38.496Z,65.56
2022-08-31T11:08:33.524Z,61.78
2022-08-31T11:11:01.316Z,64.08
2022-08-31T11:13:48.684Z,61.08
2022-08-31T11:16:32.741Z,59.83
2022-08-31T11:19:15.872Z,59.92
2022-08-31T11:21:45.346Z,58.05
2022-08-31T11:24:21.078Z,62.26
2022-08-31T11:27:06.021Z,59.50
2022-08-31T11:30:27.795Z,57.26
2022-08-31T11:32:59.599Z,59.31
2022-08-31T11:35:48.133Z,62.59
2022-08-31T11:38:40.684Z,60.31
2022-08-31T11:41:10.968Z,59.73
2022-08-31T11:43:37.348Z,58.23
2022-08-31T11:46:26.324Z,59.04
2022-08-31T11:48:56.082Z,62.51
2022-08-31T11:51:41.259Z,59.47
2022-08-31T11:54:26.941Z,61.54
2022-08-31T11:56:56.895Z,61.80
2022-08-31T11:59:30.114Z,59.83
2022-08-31T12:02:21.486Z,61.56
2022-08-31T12:05:02.944Z,62.48
2022-08-31T12:07:35.770Z,57.33
2022-08-31T12:10:16.900Z,62.05
2022-08-31T12:12:55.208Z,63.02
2022-08-31T12:15:33.405Z,62.12
2022-08-31T12:18:18.654Z,64.45
2022-08-31T12:21:19.300Z,69.13
2022-08-31T12:24:08.496Z,64.40
2022-08-31T12:26:45.428Z,65.65
2022-08-31T12:29:34.420Z,66.79
2022-08-31T12:32:17.134Z,67.35
2022-08-31T12:34:51.189Z,62.36
2022-08-31T12:37:21.659Z,65.99
2022-08-31T12:39:48.321Z,65.81
2022-08-31T12:42:16.419Z,66.19
2022-08-31T12:44:51.255Z,63.48
2022-08-31T12:47:45.538Z,64.18
2022-08-31T12:50:12.130Z,64.00
2022-08-31T12:53:06.908Z,62.04
2022-08-31T12:55:51.731Z,66.91
2022-08-31T12:58:27.384Z,65.75
2022-08-31T13:01:08.638Z,65.56
2022-08-31T13:03:38.433Z,67.70
2022-08-31T13:06:13.740Z,69.24
2022-08-31T13:08:41.968Z,70.88
2022-08-31T13:11:35.433Z,70.78
2022-08-31T13:14:31.757Z,73.36
2022-08-31T13:17:18.041Z,76.16
2022-08-31T13:20:03.156Z,77.15
2022-08-31T13:22:33.750Z,78.46
2022-08-31T13:25:48.372Z,78.26
2022-08-31T13:28:19.265Z,77.97
2022-08-31T13:31:03.589Z,76.38
2022-08-31T13:33:33.134Z,75.43
2022-08-31T13:36:32.935Z,77.72
2022-08-31T13:39:05.243Z,79.68
2022-08-31T13:41:35.869Z,76.06
2022-08-31T13:44:05.903Z,78.08
2022-08-31T13:46:43.399Z,76.33
2022-08-31T13:49:25.897Z,76.52
2022-08-31T13:51:52.544Z,75.25
2022-08-31T13:54:33.985Z,74.51
2022-08-31T13:57:22.767Z,74.57
2022-08-31T13:59:49.369Z,74.68
2022-08-31T14:02:16.361Z,72.39
2022-08-31T14:04:43.824Z,74.22
2022-08-31T14:07:15.194Z,76.35
2022-08-31T14:09:51.796Z,70.58
2022-08-31T14:12:36.349Z,72.40
2022-08-31T14:15:09.268Z,71.22
2022-08-31T14:21:19.035Z,73.98
2022-08-31T14:23:44.828Z,71.50
2022-08-31T14:26:15.762Z,73.58
2022-08-31T14:28:46.030Z,71.19
2022-08-31T14:31:21.627Z,73.13
2022-08-31T14:34:11.435Z,69.44
2022-08-31T14:37:06.870Z,69.05
2022-08-31T14:39:37.946Z,70.51
2022-08-31T14:42:17.194Z,68.40
2022-08-31T14:44:48.247Z,69.28
2022-08-31T14:47:14.835Z,69.46
2022-08-31T14:49:45.439Z,68.25
2022-08-31T14:52:13.016Z,72.34
2022-08-31T14:54:40.961Z,71.34
2022-08-31T14:57:15.904Z,71.19
2022-08-31T14:59:44.059Z,70.50
2022-08-31T15:02:12.801Z,73.00
2022-08-31T15:04:42.826Z,72.46
2022-08-31T15:07:13.923Z,74.22
2022-08-31T15:09:42.395Z,74.95
2022-08-31T15:12:14.986Z,76.08
2022-08-31T15:14:44.905Z,75.09
2022-08-31T15:17:19.141Z,72.29
2022-08-31T15:19:48.059Z,73.09
2022-08-31T15:22:15.882Z,71.25
2022-08-31T15:24:45.186Z,72.82
2022-08-31T15:27:15.131Z,72.39
2022-08-31T15:29:43.380Z,75.39
2022-08-31T15:32:10.329Z,75.49
2022-08-31T15:34:38.433Z,75.62
2022-08-31T15:37:06.634Z,74.68
2022-08-31T15:39:36.207Z,75.91
2022-08-31T15:42:09.099Z,75.17
2022-08-31T15:44:40.472Z,76.13
2022-08-31T15:47:27.868Z,73.05
2022-08-31T15:49:56.152Z,75.64
2022-08-31T15:52:27.761Z,81.27
2022-08-31T15:54:55.123Z,77.13
2022-08-31T15:57:23.444Z,76.47
2022-08-31T15:59:50.584Z,78.11
2022-08-31T16:02:20.964Z,78.36
2022-08-31T16:04:50.603Z,78.18
2022-08-31T16:07:17.830Z,78.83
2022-08-31T16:09:47.319Z,77.89
2022-08-31T16:12:15.562Z,79.75
2022-08-31T16:14:45.119Z,79.90
2022-08-31T16:17:19.391Z,80.37
2022-08-31T16:19:50.199Z,80.49
2022-08-31T16:22:18.478Z,82.37
2022-08-31T16:24:45.484Z,82.36
2022-08-31T16:27:16.332Z,81.68
2022-08-31T16:29:43.564Z,82.83
2022-08-31T16:32:10.412Z,83.25
2022-08-31T16:34:39.241Z,83.58
2022-08-31T16:37:07.778Z,85.94
2022-08-31T16:39:40.937Z,86.90
2022-08-31T16:42:11.095Z,85.29
2022-08-31T16:44:38.863Z,84.23
2022-08-31T16:47:07.524Z,84.48
2022-08-31T16:49:35.899Z,84.60
2022-08-31T16:52:09.983Z,82.68
2022-08-31T16:54:45.054Z,86.23
2022-08-31T16:57:13.204Z,88.64
2022-08-31T16:59:43.336Z,85.78
2022-08-31T17:02:12.818Z,86.85
2022-08-31T17:04:52.190Z,88.52
2022-08-31T17:07:20.609Z,86.98
2022-08-31T17:09:47.202Z,89.66
2022-08-31T17:12:21.685Z,89.55
2022-08-31T17:14:52.511Z,89.53
2022-08-31T17:17:25.433Z,89.74
2022-08-31T17:19:53.309Z,92.10
2022-08-31T17:22:30.065Z,90.21
2022-08-31T17:25:04.391Z,91.37
2022-08-31T17:27:34.986Z,93.60
2022-08-31T17:30:06.195Z,97.40
2022-08-31T17:32:36.536Z,95.50
2022-08-31T17:35:08.445Z,94.80
2022-08-31T17:37:37.917Z,96.59
2022-08-31T17:40:08.180Z,95.94
2022-08-31T17:42:35.734Z,97.73
2022-08-31T17:45:05.812Z,97.49
2022-08-31T17:47:33.316Z,99.85
2022-08-31T17:50:01.037Z,99.77
2022-08-31T17:52:29.194Z,100.00
2022-08-31T17:54:56.492Z,100.00
2022-08-31T17:57:26.736Z,100.00
2022-08-31T17:59:54.999Z,100.00
2022-08-31T18:02:26.928Z,100.00
2022-08-31T18:04:55.494Z,100.00
2022-08-31T18:07:22.490Z,100.00
2022-08-31T18:09:49.149Z,100.00
2022-08-31T18:12:16.964Z,100.00
2022-08-31T18:14:44.225Z,100.00
2022-08-31T18:17:13.052Z,100.00
2022-08-31T18:19:40.508Z,100.00
2022-08-31T18:22:07.871Z,100.00
2022-08-31T18:24:37.174Z,100.00
2022-08-31T18:27:07.210Z,100.00
2022-08-31T18:29:36.896Z,100.00
2022-08-31T18:32:05.742Z,100.00
2022-08-31T18:34:34.675Z,100.00
2022-08-31T18:37:02.649Z,100.00
2022-08-31T18:39:51.063Z,100.00
2022-08-31T18:42:36.879Z,100.00
2022-08-31T18:45:16.726Z,100.00
2022-08-31T18:48:01.660Z,100.00
2022-08-31T18:50:35.063Z,100.00
2022-08-31T18:53:08.265Z,100.00
2022-08-31T18:55:40.451Z,100.00
2022-08-31T18:58:07.156Z,100.00
2022-08-31T19:00:33.915Z,100.00
2022-08-31T19:03:02.120Z,100.00
2022-08-31T19:05:29.623Z,100.00
2022-08-31T19:07:58.964Z,100.00
2022-08-31T19:10:26.560Z,100.00
2022-08-31T19:12:55.825Z,100.00
2022-08-31T19:15:25.463Z,100.00
2022-08-31T19:17:54.383Z,100.00
2022-08-31T19:20:21.974Z,100.00
2022-08-31T19:22:48.680Z,100.00
2022-08-31T19:25:18.341Z,100.00
2022-08-31T19:27:50.226Z,100.00
2022-08-31T19:30:18.576Z,100.00
2022-08-31T19:32:45.303Z,100.00
2022-08-31T19:35:11.995Z,100.00
2022-08-31T19:37:39.301Z,100.00
2022-08-31T19:40:06.691Z,100.00
2022-08-31T19:42:40.583Z,100.00
2022-08-31T19:45:24.539Z,100.00
2022-08-31T19:47:51.673Z,100.00
2022-08-31T19:50:18.488Z,100.00
2022-08-31T19:52:46.059Z,100.00
2022-08-31T19:55:12.839Z,100.00
2022-08-31T19:57:39.910Z,100.00
2022-08-31T20:00:09.589Z,100.00
2022-08-31T20:02:37.169Z,100.00
2022-08-31T20:05:06.309Z,100.00
2022-08-31T20:07:35.252Z,100.00
2022-08-31T20:10:03.488Z,100.00
2022-08-31T20:12:30.323Z,100.00
2022-08-31T20:14:57.491Z,100.00
2022-08-31T20:17:24.237Z,100.00
2022-08-31T20:19:51.043Z,100.00
2022-08-31T20:22:21.588Z,100.00
2022-08-31T20:24:48.680Z,100.00
2022-08-31T20:27:18.464Z,100.00
2022-08-31T20:29:45.574Z,100.00
2022-08-31T20:32:12.256Z,100.00
2022-08-31T20:34:38.967Z,100.00
2022-08-31T20:37:05.783Z,100.00
2022-08-31T20:39:33.267Z,100.00
2022-08-31T20:42:00.514Z,100.00
2022-08-31T20:44:30.626Z,100.00
2022-08-31T20:47:18.535Z,100.00
2022-08-31T20:49:50.306Z,100.00
2022-08-31T20:52:17.663Z,100.00
2022-08-31T20:54:44.814Z,100.00
2022-08-31T20:57:13.490Z,100.00
2022-08-31T20:59:41.490Z,100.00
2022-08-31T21:02:08.922Z,100.00
2022-08-31T21:04:38.930Z,100.00
2022-08-31T21:07:06.814Z,100.00
2022-08-31T21:09:33.741Z,100.00
2022-08-31T21:12:01.356Z,100.00
2022-08-31T21:14:28.765Z,100.00
2022-08-31T21:16:56.607Z,100.00
2022-08-31T21:19:24.252Z,100.00
2022-08-31T21:21:53.735Z,100.00
2022-08-31T21:24:21.475Z,100.00
2022-08-31T21:26:48.999Z,100.00
2022-08-31T21:29:17.708Z,100.00
2022-08-31T21:31:56.918Z,100.00
2022-08-31T21:34:26.977Z,100.00
2022-08-31T21:36:53.534Z,100.00
2022-08-31T21:39:21.150Z,100.00
2022-08-31T21:41:48.306Z,100.00
2022-08-31T21:44:17.987Z,100.00
2022-08-31T21:46:49.812Z,100.00
2022-08-31T21:49:17.953Z,100.00
2022-08-31T21:51:52.958Z,100.00
2022-08-31T21:54:22.678Z,100.00
2022-08-31T21:56:52.714Z,100.00
2022-08-31T21:59:21.163Z,100.00
2022-08-31T22:01:47.947Z,100.00
2022-08-31T22:04:16.371Z,100.00
2022-08-31T22:06:43.190Z,100.00
2022-08-31T22:09:12.451Z,100.00
2022-08-31T22:11:41.569Z,100.00
2022-08-31T22:14:10.181Z,100.00
2022-08-31T22:16:38.585Z,100.00
2022-08-31T22:19:12.560Z,100.00
2022-08-31T22:21:42.900Z,100.00
2022-08-31T22:24:18.942Z,100.00
2022-08-31T22:26:55.858Z,100.00
2022-08-31T22:29:25.157Z,100.00
2022-08-31T22:31:54.734Z,100.00
2022-08-31T22:34:21.237Z,100.00
2022-08-31T22:36:53.297Z,100.00
2022-08-31T22:39:23.629Z,100.00
2022-08-31T22:41:53.061Z,100.00
2022-08-31T22:44:22.302Z,100.00
2022-08-31T22:46:50.110Z,100.00
2022-08-31T22:49:17.403Z,100.00
2022-08-31T22:51:48.442Z,100.00
2022-08-31T22:54:17.631Z,100.00
2022-08-31T22:56:44.458Z,100.00
2022-08-31T22:59:14.438Z,100.00
2022-08-31T23:01:44.167Z,100.00
2022-08-31T23:04:14.093Z,100.00
2022-08-31T23:06:41.063Z,100.00
2022-08-31T23:09:09.901Z,100.00
2022-08-31T23:11:37.913Z,100.00
2022-08-31T23:14:09.118Z,100.00
2022-08-31T23:16:42.429Z,100.00
2022-08-31T23:19:12.529Z,100.00
2022-08-31T23:21:52.651Z,100.00
2022-08-31T23:24:28.668Z,100.00
2022-08-31T23:27:04.157Z,100.00
2022-08-31T23:29:34.861Z,100.00
2022-08-31T23:32:03.207Z,100.00
2022-08-31T23:34:30.241Z,100.00
2022-08-31T23:36:57.048Z,100.00
2022-08-31T23:39:24.220Z,100.00
2022-08-31T23:41:53.165Z,100.00
2022-08-31T23:44:20.549Z,100.00
2022-08-31T23:46:48.066Z,100.00
2022-08-31T23:49:17.092Z,100.00
2022-08-31T23:51:43.698Z,100.00
2022-08-31T23:54:10.709Z,100.00
2022-08-31T23:56:40.404Z,100.00
2022-08-31T23:59:13.973Z,100.00
